createdAt,value
2019-03-27T00:01:47.922Z,102192.36
2019-03-27T00:04:15.233Z,102196.50
2019-03-27T00:06:42.516Z,102193.85
2019-03-27T00:09:10.161Z,102189.83
2019-03-27T00:11:37.541Z,102187.50
2019-03-27T00:14:04.825Z,102198.14
2019-03-27T00:16:32.081Z,102196.02
2019-03-27T00:18:59.398Z,102197.06
2019-03-27T00:21:26.763Z,102195.83
2019-03-27T00:23:54.122Z,102192.05
2019-03-27T00:26:21.523Z,102194.39
2019-03-27T00:28:49.147Z,102200.70
2019-03-27T00:31:16.304Z,102198.38
2019-03-27T00:36:17.775Z,102201.10
2019-03-27T00:38:45.491Z,102203.98
2019-03-27T00:41:12.763Z,102189.15
2019-03-27T00:43:40.087Z,102192.33
2019-03-27T00:46:07.462Z,102189.97
2019-03-27T00:48:35.011Z,102192.51
2019-03-27T00:51:02.287Z,102195.27
2019-03-27T00:53:30.025Z,102193.74
2019-03-27T00:55:57.282Z,102192.89
2019-03-27T00:58:24.549Z,102189.84
2019-03-27T01:01:12.226Z,102186.48
2019-03-27T01:03:39.694Z,102183.52
2019-03-27T01:06:07.056Z,102181.61
2019-03-27T01:08:34.508Z,102177.70
2019-03-27T01:11:01.861Z,102181.61
2019-03-27T01:13:29.402Z,102188.17
2019-03-27T01:15:57.113Z,102183.98
2019-03-27T01:18:24.756Z,102185.38
2019-03-27T01:20:52.012Z,102186.27
2019-03-27T01:23:19.844Z,102182.45
2019-03-27T01:25:47.143Z,102177.09
2019-03-27T01:28:14.400Z,102172.75
2019-03-27T01:30:42.142Z,102174.20
2019-03-27T01:33:09.682Z,102175.59
2019-03-27T01:35:36.936Z,102184.38
2019-03-27T01:38:04.303Z,102181.77
2019-03-27T01:40:31.568Z,102184.59
2019-03-27T01:42:59.374Z,102184.64
2019-03-27T01:45:52.196Z,102179.69
2019-03-27T01:48:08.413Z,102180.18
2019-03-27T01:50:35.660Z,102182.83
2019-03-27T01:53:03.056Z,102187.13
2019-03-27T01:55:31.047Z,102181.41
2019-03-27T01:57:58.327Z,102190.82
2019-03-27T02:00:25.713Z,102191.36
2019-03-27T02:02:53.318Z,102193.24
2019-03-27T02:05:21.351Z,102188.55
2019-03-27T02:07:48.684Z,102196.08
2019-03-27T02:10:16.111Z,102197.30
2019-03-27T02:12:43.740Z,102202.64
2019-03-27T02:15:32.251Z,102202.85
2019-03-27T02:18:00.003Z,102204.41
2019-03-27T02:20:27.376Z,102191.45
2019-03-27T02:22:54.939Z,102195.20
2019-03-27T02:25:22.187Z,102194.48
2019-03-27T02:27:49.450Z,102192.27
2019-03-27T02:30:17.161Z,102191.75
2019-03-27T02:32:44.382Z,102190.16
2019-03-27T02:35:11.632Z,102200.33
2019-03-27T02:37:38.950Z,102192.00
2019-03-27T02:40:06.325Z,102190.98
2019-03-27T02:42:34.014Z,102197.27
2019-03-27T02:45:01.404Z,102196.59
2019-03-27T02:47:28.703Z,102190.83
2019-03-27T02:49:56.339Z,102195.89
2019-03-27T02:52:23.653Z,102193.16
2019-03-27T02:54:51.016Z,102200.95
2019-03-27T02:57:18.767Z,102198.37
2019-03-27T02:59:46.262Z,102196.83
2019-03-27T03:02:13.898Z,102197.05
2019-03-27T03:05:22.052Z,102198.73
2019-03-27T03:07:49.730Z,102204.88
2019-03-27T03:10:17.401Z,102198.12
2019-03-27T03:12:44.713Z,102201.47
2019-03-27T03:15:53.104Z,102204.77
2019-03-27T03:18:21.000Z,102209.23
2019-03-27T03:20:48.367Z,102212.13
2019-03-27T03:23:15.625Z,102209.00
2019-03-27T03:25:43.368Z,102212.97
2019-03-27T03:28:10.730Z,102208.96
2019-03-27T03:30:38.106Z,102212.09
2019-03-27T03:33:05.524Z,102217.65
2019-03-27T03:35:32.874Z,102218.38
2019-03-27T03:38:00.427Z,102213.91
2019-03-27T03:40:27.818Z,102216.94
2019-03-27T03:42:55.066Z,102219.67
2019-03-27T03:45:22.329Z,102218.42
2019-03-27T03:47:50.118Z,102218.70
2019-03-27T03:50:37.545Z,102218.16
2019-03-27T03:53:45.697Z,102221.19
2019-03-27T03:56:53.723Z,102226.45
2019-03-27T04:00:01.875Z,102236.13
2019-03-27T04:03:09.915Z,102233.61
2019-03-27T04:05:37.381Z,102236.52
2019-03-27T04:08:04.774Z,102238.75
2019-03-27T04:10:32.039Z,102245.81
2019-03-27T04:12:59.488Z,102244.59
2019-03-27T04:15:26.874Z,102237.78
2019-03-27T04:17:54.129Z,102232.98
2019-03-27T04:20:21.512Z,102235.34
2019-03-27T04:22:48.780Z,102238.91
2019-03-27T04:28:10.920Z,102245.90
2019-03-27T04:30:38.212Z,102248.41
2019-03-27T04:33:05.784Z,102247.52
2019-03-27T04:35:33.097Z,102248.87
2019-03-27T04:38:00.732Z,102252.82
2019-03-27T04:40:28.000Z,102255.48
2019-03-27T04:42:55.552Z,102256.31
2019-03-27T04:45:22.805Z,102256.90
2019-03-27T04:47:50.066Z,102258.66
2019-03-27T04:50:29.762Z,102264.39
2019-03-27T04:52:57.589Z,102263.55
2019-03-27T04:55:24.955Z,102266.23
2019-03-27T04:57:52.331Z,102262.78
2019-03-27T05:00:20.083Z,102265.47
2019-03-27T05:02:47.953Z,102268.12
2019-03-27T05:05:15.658Z,102262.62
2019-03-27T05:07:42.932Z,102259.52
2019-03-27T05:10:10.523Z,102267.48
2019-03-27T05:12:38.802Z,102266.98
2019-03-27T05:15:07.358Z,102274.62
2019-03-27T05:17:45.314Z,102273.84
2019-03-27T05:20:05.028Z,102275.18
2019-03-27T05:22:32.512Z,102279.59
2019-03-27T05:25:00.393Z,102280.34
2019-03-27T05:27:27.897Z,102279.66
2019-03-27T05:29:55.197Z,102282.24
2019-03-27T05:32:22.751Z,102285.63
2019-03-27T05:34:50.431Z,102282.13
2019-03-27T05:37:17.703Z,102285.59
2019-03-27T05:39:44.962Z,102296.30
2019-03-27T05:42:12.389Z,102292.80
2019-03-27T05:44:39.717Z,102291.92
2019-03-27T05:47:07.363Z,102296.30
2019-03-27T05:49:34.777Z,102290.47
2019-03-27T05:52:02.102Z,102295.38
2019-03-27T05:54:29.753Z,102301.52
2019-03-27T05:56:57.433Z,102304.56
2019-03-27T05:59:25.180Z,102307.74
2019-03-27T06:01:52.638Z,102304.56
2019-03-27T06:04:19.967Z,102302.84
2019-03-27T06:06:47.519Z,102312.47
2019-03-27T06:09:14.788Z,102306.37
2019-03-27T06:11:42.640Z,102314.28
2019-03-27T06:14:10.407Z,102316.50
2019-03-27T06:16:37.672Z,102325.80
2019-03-27T06:19:05.161Z,102327.95
2019-03-27T06:21:32.734Z,102327.45
2019-03-27T06:24:00.116Z,102321.84
2019-03-27T06:27:24.993Z,102325.44
2019-03-27T06:30:04.132Z,102320.95
2019-03-27T06:32:32.216Z,102332.79
2019-03-27T06:35:01.401Z,102333.11
2019-03-27T06:37:29.041Z,102343.28
2019-03-27T06:39:56.583Z,102339.33
2019-03-27T06:42:24.473Z,102340.62
2019-03-27T06:44:52.849Z,102344.66
2019-03-27T06:47:20.488Z,102347.17
2019-03-27T06:49:47.748Z,102346.28
2019-03-27T06:52:15.224Z,102345.89
2019-03-27T06:54:42.526Z,102342.89
2019-03-27T06:57:09.791Z,102347.38
2019-03-27T06:59:37.382Z,102347.05
2019-03-27T07:02:04.815Z,102344.64
2019-03-27T07:04:32.475Z,102347.91
2019-03-27T07:06:59.841Z,102350.62
2019-03-27T07:09:27.161Z,102352.09
2019-03-27T07:11:54.430Z,102359.09
2019-03-27T07:14:21.705Z,102358.17
2019-03-27T07:17:09.014Z,102364.05
2019-03-27T07:19:36.281Z,102359.22
2019-03-27T07:22:03.556Z,102356.89
2019-03-27T07:24:31.115Z,102370.75
2019-03-27T07:26:58.380Z,102374.06
2019-03-27T07:29:45.175Z,102371.95
2019-03-27T07:32:12.726Z,102374.27
2019-03-27T07:34:40.182Z,102374.62
2019-03-27T07:37:07.653Z,102377.25
2019-03-27T07:39:35.567Z,102385.70
2019-03-27T07:42:03.640Z,102381.75
2019-03-27T07:44:30.969Z,102380.95
2019-03-27T07:46:58.243Z,102376.70
2019-03-27T07:49:25.614Z,102385.08
2019-03-27T07:51:53.106Z,102384.78
2019-03-27T07:54:20.820Z,102386.67
2019-03-27T07:56:48.090Z,102386.94
2019-03-27T07:59:15.515Z,102385.34
2019-03-27T08:01:43.058Z,102380.77
2019-03-27T08:04:10.328Z,102391.68
2019-03-27T08:06:37.714Z,102397.34
2019-03-27T08:09:06.890Z,102391.45
2019-03-27T08:11:34.537Z,102395.69
2019-03-27T08:14:02.434Z,102394.84
2019-03-27T08:16:30.492Z,102401.41
2019-03-27T08:19:07.406Z,102397.41
2019-03-27T08:21:30.984Z,102398.23
2019-03-27T08:23:57.254Z,102392.57
2019-03-27T08:26:24.821Z,102384.75
2019-03-27T08:28:52.649Z,102390.16
2019-03-27T08:31:20.300Z,102388.20
2019-03-27T08:33:47.563Z,102384.94
2019-03-27T08:36:15.274Z,102395.03
2019-03-27T08:38:42.867Z,102396.50
2019-03-27T08:41:10.302Z,102393.66
2019-03-27T08:43:37.671Z,102403.70
2019-03-27T08:46:04.963Z,102403.64
2019-03-27T08:48:32.265Z,102398.19
2019-03-27T08:50:59.682Z,102409.16
2019-03-27T08:53:27.436Z,102400.93
2019-03-27T08:56:06.958Z,102408.87
2019-03-27T08:58:34.338Z,102405.77
2019-03-27T09:01:01.713Z,102404.28
2019-03-27T09:03:29.031Z,102407.72
2019-03-27T09:05:56.758Z,102407.46
2019-03-27T09:08:24.625Z,102408.30
2019-03-27T09:10:52.420Z,102398.25
2019-03-27T09:13:20.064Z,102406.71
2019-03-27T09:15:47.417Z,102404.89
2019-03-27T09:18:16.872Z,102407.25
2019-03-27T09:20:44.494Z,102412.26
2019-03-27T09:23:14.091Z,102413.51
2019-03-27T09:25:41.514Z,102419.11
2019-03-27T09:28:09.480Z,102419.44
2019-03-27T09:30:36.985Z,102421.23
2019-03-27T09:33:04.424Z,102420.86
2019-03-27T09:35:31.814Z,102418.12
2019-03-27T09:37:59.087Z,102425.20
2019-03-27T09:40:26.394Z,102424.45
2019-03-27T09:42:53.927Z,102436.33
2019-03-27T09:45:21.222Z,102425.37
2019-03-27T09:47:48.533Z,102426.00
2019-03-27T09:50:15.797Z,102419.99
2019-03-27T09:52:43.070Z,102426.47
2019-03-27T09:58:06.135Z,102432.57
2019-03-27T10:00:53.409Z,102433.89
2019-03-27T10:03:20.724Z,102432.08
2019-03-27T10:05:48.010Z,102430.81
2019-03-27T10:08:15.270Z,102429.28
2019-03-27T10:10:42.703Z,102429.30
2019-03-27T10:13:09.957Z,102427.20
2019-03-27T10:15:37.528Z,102429.06
2019-03-27T10:18:05.126Z,102434.72
2019-03-27T10:20:32.496Z,102431.22
2019-03-27T10:22:59.758Z,102432.42
2019-03-27T10:25:27.457Z,102432.87
2019-03-27T10:27:54.834Z,102435.08
2019-03-27T10:30:22.106Z,102430.52
2019-03-27T10:32:49.483Z,102435.47
2019-03-27T10:35:16.801Z,102439.80
2019-03-27T10:37:44.151Z,102439.80
2019-03-27T10:40:11.593Z,102444.58
2019-03-27T10:42:38.953Z,102443.14
2019-03-27T10:45:27.767Z,102436.25
2019-03-27T10:47:55.610Z,102449.77
2019-03-27T10:50:23.209Z,102448.58
2019-03-27T10:52:50.633Z,102443.77
2019-03-27T10:55:17.897Z,102440.66
2019-03-27T10:57:45.257Z,102447.66
2019-03-27T11:00:12.850Z,102446.55
2019-03-27T11:02:40.353Z,102448.94
2019-03-27T11:05:48.584Z,102447.42
2019-03-27T11:08:16.194Z,102446.25
2019-03-27T11:10:43.459Z,102444.48
2019-03-27T11:13:11.627Z,102449.60
2019-03-27T11:15:38.922Z,102451.72
2019-03-27T11:18:06.194Z,102444.75
2019-03-27T11:20:33.607Z,102445.21
2019-03-27T11:23:01.582Z,102449.66
2019-03-27T11:25:28.854Z,102454.48
2019-03-27T11:27:56.159Z,102451.37
2019-03-27T11:31:08.488Z,102450.79
2019-03-27T11:33:36.274Z,102449.92
2019-03-27T11:36:03.960Z,102450.91
2019-03-27T11:38:31.220Z,102450.84
2019-03-27T11:40:58.701Z,102442.52
2019-03-27T11:43:26.387Z,102444.28
2019-03-27T11:45:53.696Z,102438.44
2019-03-27T11:48:21.289Z,102439.31
2019-03-27T11:50:48.929Z,102444.47
2019-03-27T11:53:16.321Z,102444.58
2019-03-27T11:55:43.636Z,102438.78
2019-03-27T11:58:14.705Z,102440.06
2019-03-27T12:00:53.834Z,102442.27
2019-03-27T12:03:11.195Z,102437.64
2019-03-27T12:05:38.445Z,102436.89
2019-03-27T12:08:05.710Z,102428.19
2019-03-27T12:10:34.013Z,102427.53
2019-03-27T12:13:01.568Z,102427.69
2019-03-27T12:15:48.237Z,102429.48
2019-03-27T12:18:37.047Z,102425.99
2019-03-27T12:21:04.541Z,102422.47
2019-03-27T12:23:31.835Z,102425.98
2019-03-27T12:25:59.598Z,102424.66
2019-03-27T12:28:26.917Z,102428.16
2019-03-27T12:30:54.307Z,102428.18
2019-03-27T12:33:21.811Z,102429.53
2019-03-27T12:35:49.116Z,102422.03
2019-03-27T12:38:16.518Z,102422.47
2019-03-27T12:40:44.116Z,102422.44
2019-03-27T12:43:11.799Z,102425.52
2019-03-27T12:45:39.285Z,102409.67
2019-03-27T12:48:06.658Z,102412.28
2019-03-27T12:50:34.444Z,102413.60
2019-03-27T12:53:02.062Z,102411.81
2019-03-27T12:55:29.443Z,102408.81
2019-03-27T12:57:56.714Z,102410.11
2019-03-27T13:00:24.170Z,102405.78
2019-03-27T13:03:09.862Z,102405.78
2019-03-27T13:05:37.404Z,102407.53
2019-03-27T13:08:04.674Z,102407.53
2019-03-27T13:10:32.104Z,102408.81
2019-03-27T13:12:59.727Z,102407.98
2019-03-27T13:15:27.102Z,102406.66
2019-03-27T13:17:54.417Z,102407.98
2019-03-27T13:20:21.812Z,102408.84
2019-03-27T13:22:49.179Z,102414.55
2019-03-27T13:25:16.589Z,102413.70
2019-03-27T13:27:47.379Z,102416.31
2019-03-27T13:30:54.354Z,102411.91
2019-03-27T13:33:21.619Z,102411.91
2019-03-27T13:35:49.181Z,102405.77
2019-03-27T13:38:16.881Z,102408.41
2019-03-27T13:40:44.496Z,102407.97
2019-03-27T13:43:11.871Z,102410.61
2019-03-27T13:45:39.481Z,102404.91
2019-03-27T13:48:06.855Z,102403.15
2019-03-27T13:50:34.281Z,102406.20
2019-03-27T13:53:02.053Z,102404.45
2019-03-27T13:55:29.679Z,102404.89
2019-03-27T13:57:57.235Z,102406.22
2019-03-27T14:00:24.543Z,102402.72
2019-03-27T14:02:51.916Z,102407.53
2019-03-27T14:05:19.503Z,102403.13
2019-03-27T14:07:47.007Z,102398.77
2019-03-27T14:10:15.175Z,102409.30
2019-03-27T14:12:42.574Z,102402.27
2019-03-27T14:15:10.006Z,102401.81
2019-03-27T14:17:37.178Z,102410.17
2019-03-27T14:20:46.239Z,102404.91
2019-03-27T14:23:13.783Z,102405.34
2019-03-27T14:25:41.068Z,102396.55
2019-03-27T14:28:08.686Z,102402.68
2019-03-27T14:30:55.479Z,102394.34
2019-03-27T14:33:23.211Z,102391.72
2019-03-27T14:36:09.886Z,102390.40
2019-03-27T14:38:37.243Z,102393.90
2019-03-27T14:41:04.873Z,102394.30
2019-03-27T14:43:32.830Z,102388.14
2019-03-27T14:46:00.358Z,102390.81
2019-03-27T14:48:27.933Z,102386.87
2019-03-27T14:50:55.516Z,102392.57
2019-03-27T14:53:22.938Z,102389.48
2019-03-27T14:55:50.308Z,102386.88
2019-03-27T14:58:17.855Z,102389.47
2019-03-27T15:00:45.305Z,102388.17
2019-03-27T15:03:12.570Z,102381.12
2019-03-27T15:05:39.867Z,102382.44
2019-03-27T15:08:07.319Z,102379.37
2019-03-27T15:10:34.581Z,102374.97
2019-03-27T15:13:01.854Z,102371.41
2019-03-27T15:15:29.239Z,102372.31
2019-03-27T15:17:56.640Z,102372.27
2019-03-27T15:20:23.997Z,102377.98
2019-03-27T15:22:51.314Z,102365.28
2019-03-27T15:25:18.587Z,102366.16
2019-03-27T15:27:46.398Z,102367.52
2019-03-27T15:30:14.087Z,102375.86
2019-03-27T15:32:41.760Z,102367.94
2019-03-27T15:35:49.851Z,102373.27
2019-03-27T15:38:17.846Z,102366.66
2019-03-27T15:41:26.006Z,102362.70
2019-03-27T15:43:53.557Z,102360.09
2019-03-27T15:46:20.823Z,102359.65
2019-03-27T15:49:07.494Z,102358.36
2019-03-27T15:51:34.856Z,102360.11
2019-03-27T15:54:02.109Z,102355.30
2019-03-27T15:56:29.870Z,102357.48
2019-03-27T15:59:16.390Z,102352.63
2019-03-27T16:01:43.978Z,102345.19
2019-03-27T16:04:30.865Z,102350.45
2019-03-27T16:06:58.787Z,102352.63
2019-03-27T16:09:27.180Z,102362.73
2019-03-27T16:12:53.284Z,102364.48
2019-03-27T16:15:20.761Z,102364.01
2019-03-27T16:17:48.717Z,102359.61
2019-03-27T16:20:16.138Z,102360.91
2019-03-27T16:22:50.713Z,102360.49
2019-03-27T16:25:32.490Z,102363.53
2019-03-27T16:27:59.861Z,102367.04
2019-03-27T16:30:55.584Z,102364.86
2019-03-27T16:33:23.723Z,102363.13
2019-03-27T16:35:51.618Z,102360.48
2019-03-27T16:38:19.408Z,102363.55
2019-03-27T16:40:48.015Z,102367.48
2019-03-27T16:43:35.156Z,102371.02
2019-03-27T16:46:21.773Z,102377.16
2019-03-27T16:48:49.295Z,102371.42
2019-03-27T16:51:16.889Z,102376.27
2019-03-27T16:53:45.484Z,102372.32
2019-03-27T16:56:12.906Z,102374.47
2019-03-27T16:58:40.270Z,102382.81
2019-03-27T17:01:27.425Z,102381.95
2019-03-27T17:04:14.103Z,102385.39
2019-03-27T17:06:41.485Z,102389.19
2019-03-27T17:09:28.622Z,102393.05
2019-03-27T17:11:56.704Z,102392.09
2019-03-27T17:14:24.870Z,102389.41
2019-03-27T17:17:12.450Z,102389.80
2019-03-27T17:19:40.353Z,102388.83
2019-03-27T17:22:18.787Z,102383.95
2019-03-27T17:24:37.646Z,102383.90
2019-03-27T17:27:04.942Z,102386.94
2019-03-27T17:29:32.966Z,102379.45
2019-03-27T17:32:00.536Z,102380.81
2019-03-27T17:34:28.211Z,102379.00
2019-03-27T17:36:55.828Z,102386.45
2019-03-27T17:39:23.651Z,102389.50
2019-03-27T17:41:50.939Z,102391.72
2019-03-27T17:44:18.719Z,102397.42
2019-03-27T17:46:49.918Z,102394.38
2019-03-27T17:49:35.171Z,102394.36
2019-03-27T17:52:02.687Z,102396.09
2019-03-27T17:54:30.830Z,102396.11
2019-03-27T17:57:17.835Z,102400.54
2019-03-27T17:59:45.864Z,102403.59
2019-03-27T18:02:13.604Z,102402.30
2019-03-27T18:04:41.471Z,102402.28
2019-03-27T18:07:28.584Z,102411.88
2019-03-27T18:09:56.600Z,102410.14
2019-03-27T18:12:24.259Z,102415.44
2019-03-27T18:14:52.080Z,102419.04
2019-03-27T18:17:19.764Z,102415.56
2019-03-27T18:19:47.423Z,102419.52
2019-03-27T18:22:15.591Z,102422.63
2019-03-27T18:24:43.496Z,102420.91
2019-03-27T18:27:11.319Z,102416.55
2019-03-27T18:29:38.957Z,102419.61
2019-03-27T18:32:07.018Z,102419.63
2019-03-27T18:34:34.619Z,102425.81
2019-03-27T18:37:02.239Z,102423.19
2019-03-27T18:39:30.308Z,102422.26
2019-03-27T18:41:58.165Z,102431.04
2019-03-27T18:44:25.827Z,102432.38
2019-03-27T18:46:53.542Z,102432.80
2019-03-27T18:49:22.045Z,102432.39
2019-03-27T18:51:50.321Z,102438.12
2019-03-27T18:54:18.043Z,102441.54
2019-03-27T18:56:45.664Z,102446.39
2019-03-27T18:59:13.285Z,102446.00
2019-03-27T19:01:40.981Z,102440.78
2019-03-27T19:04:09.012Z,102442.98
2019-03-27T19:06:38.016Z,102454.35
2019-03-27T19:09:08.100Z,102445.14
2019-03-27T19:11:55.008Z,102447.77
2019-03-27T19:14:23.006Z,102445.14
2019-03-27T19:16:50.454Z,102443.42
2019-03-27T19:19:17.736Z,102443.42
2019-03-27T19:21:45.051Z,102448.59
2019-03-27T19:24:16.417Z,102449.56
2019-03-27T19:26:41.972Z,102448.67
2019-03-27T19:29:09.319Z,102455.66
2019-03-27T19:31:36.683Z,102451.27
2019-03-27T19:34:04.330Z,102453.47
2019-03-27T19:36:31.846Z,102451.72
2019-03-27T19:38:59.299Z,102456.52
2019-03-27T19:41:26.702Z,102452.60
2019-03-27T19:43:54.279Z,102456.56
2019-03-27T19:46:21.862Z,102457.86
2019-03-27T19:48:49.818Z,102457.86
2019-03-27T19:51:17.899Z,102453.47
2019-03-27T19:53:45.182Z,102456.55
2019-03-27T19:56:12.465Z,102446.43
2019-03-27T19:58:39.888Z,102447.75
2019-03-27T20:01:07.340Z,102446.84
2019-03-27T20:03:34.958Z,102452.55
2019-03-27T20:06:02.612Z,102449.06
2019-03-27T20:08:29.978Z,102446.87
2019-03-27T20:10:57.234Z,102449.08
2019-03-27T20:13:24.551Z,102446.87
2019-03-27T20:15:52.108Z,102442.05
2019-03-27T20:18:19.465Z,102448.64
2019-03-27T20:20:47.152Z,102442.47
2019-03-27T20:23:15.621Z,102443.35
2019-03-27T20:25:44.153Z,102446.78
2019-03-27T20:28:12.051Z,102442.87
2019-03-27T20:30:39.304Z,102442.92
2019-03-27T20:33:06.984Z,102450.37
2019-03-27T20:35:34.528Z,102449.51
2019-03-27T20:38:02.113Z,102450.75
2019-03-27T20:43:18.636Z,102452.90
2019-03-27T20:45:46.174Z,102451.22
2019-03-27T20:48:14.185Z,102453.31
2019-03-27T20:50:41.825Z,102451.59
2019-03-27T20:53:09.363Z,102445.47
2019-03-27T20:55:36.737Z,102443.66
2019-03-27T20:58:04.302Z,102445.89
2019-03-27T21:00:31.577Z,102449.84
2019-03-27T21:02:58.856Z,102445.00
2019-03-27T21:05:26.592Z,102442.33
2019-03-27T21:07:53.969Z,102444.05
2019-03-27T21:10:21.273Z,102446.14
2019-03-27T21:12:48.577Z,102445.11
2019-03-27T21:15:15.851Z,102443.82
2019-03-27T21:17:43.404Z,102445.52
2019-03-27T21:20:10.733Z,102435.42
2019-03-27T21:22:38.051Z,102441.08
2019-03-27T21:25:09.240Z,102438.87
2019-03-27T21:27:35.229Z,102434.02
2019-03-27T21:30:02.627Z,102436.95
2019-03-27T21:32:29.921Z,102440.42
2019-03-27T21:34:57.352Z,102440.42
2019-03-27T21:37:24.707Z,102441.71
2019-03-27T21:39:52.139Z,102448.22
2019-03-27T21:42:19.492Z,102448.52
2019-03-27T21:44:46.767Z,102446.31
2019-03-27T21:47:14.339Z,102441.96
2019-03-27T21:49:41.791Z,102444.64
2019-03-27T21:52:09.348Z,102452.52
2019-03-27T21:54:36.743Z,102448.98
2019-03-27T21:57:04.450Z,102447.26
2019-03-27T21:59:31.725Z,102450.39
2019-03-27T22:01:58.988Z,102454.70
2019-03-27T22:04:26.308Z,102446.84
2019-03-27T22:06:53.738Z,102452.11
2019-03-27T22:09:21.017Z,102448.56
2019-03-27T22:11:48.576Z,102450.72
2019-03-27T22:14:15.840Z,102448.91
2019-03-27T22:16:43.345Z,102448.95
2019-03-27T22:19:10.679Z,102456.40
2019-03-27T22:21:38.694Z,102452.87
2019-03-27T22:24:25.470Z,102452.41
2019-03-27T22:26:52.731Z,102461.16
2019-03-27T22:29:20.099Z,102453.28
2019-03-27T22:31:47.436Z,102457.65
2019-03-27T22:34:14.799Z,102456.23
2019-03-27T22:36:42.095Z,102458.75
2019-03-27T22:39:09.430Z,102460.52
2019-03-27T22:41:36.822Z,102458.80
2019-03-27T22:44:04.210Z,102464.11
2019-03-27T22:46:31.694Z,102458.84
2019-03-27T22:48:59.001Z,102461.41
2019-03-27T22:51:26.293Z,102461.91
2019-03-27T22:53:53.764Z,102460.56
2019-03-27T22:56:21.229Z,102457.00
2019-03-27T22:58:48.652Z,102457.85
2019-03-27T23:01:16.381Z,102457.46
2019-03-27T23:03:43.642Z,102451.31
2019-03-27T23:06:11.302Z,102457.02
2019-03-27T23:08:39.486Z,102453.10
2019-03-27T23:11:06.885Z,102449.16
2019-03-27T23:13:34.159Z,102452.30
2019-03-27T23:16:01.488Z,102455.81
2019-03-27T23:18:28.772Z,102454.05
2019-03-27T23:20:56.152Z,102457.42
2019-03-27T23:23:23.835Z,102456.58
2019-03-27T23:26:02.553Z,102452.64
2019-03-27T23:28:20.936Z,102453.98
2019-03-27T23:30:48.263Z,102462.78
2019-03-27T23:33:15.647Z,102458.86
2019-03-27T23:35:44.095Z,102461.47
2019-03-27T23:38:12.924Z,102461.05
2019-03-27T23:40:40.705Z,102457.52
2019-03-27T23:43:08.631Z,102461.41
2019-03-27T23:45:36.003Z,102459.61
2019-03-27T23:48:03.500Z,102455.31
2019-03-27T23:50:31.079Z,102452.73
2019-03-27T23:52:59.071Z,102456.22
2019-03-27T23:55:26.341Z,102451.45
2019-03-27T23:57:53.734Z,102446.19
